createdAt,value
2018-06-10T00:00:46.019Z,1000.41
2018-06-10T00:01:45.958Z,1000.40
2018-06-10T00:02:45.909Z,1000.38
2018-06-10T00:03:45.868Z,1000.40
2018-06-10T00:04:45.825Z,1000.40
2018-06-10T00:05:45.803Z,1000.41
2018-06-10T00:06:45.732Z,1000.45
2018-06-10T00:07:45.689Z,1000.49
2018-06-10T00:08:45.642Z,1000.48
2018-06-10T00:09:45.601Z,1000.48
2018-06-10T00:10:45.584Z,1000.44
2018-06-10T00:11:45.513Z,1000.48
2018-06-10T00:12:45.468Z,1000.49
2018-06-10T00:13:45.426Z,1000.46
2018-06-10T00:14:45.383Z,1000.45
2018-06-10T00:15:45.363Z,1000.43
2018-06-10T00:16:45.294Z,1000.41
2018-06-10T00:17:45.249Z,1000.41
2018-06-10T00:18:45.205Z,1000.38
2018-06-10T00:19:45.162Z,1000.42
2018-06-10T00:20:45.139Z,1000.38
2018-06-10T00:21:45.074Z,1000.40
2018-06-10T00:22:45.031Z,1000.37
2018-06-10T00:23:44.990Z,1000.38
2018-06-10T00:24:44.947Z,1000.36
2018-06-10T00:25:44.923Z,1000.34
2018-06-10T00:26:44.859Z,1000.33
2018-06-10T00:27:44.814Z,1000.34
2018-06-10T00:28:44.770Z,1000.35
2018-06-10T00:29:44.724Z,1000.31
2018-06-10T00:30:44.721Z,1000.36
2018-06-10T00:31:44.640Z,1000.31
2018-06-10T00:32:44.591Z,1000.33
2018-06-10T00:33:44.550Z,1000.33
2018-06-10T00:34:44.514Z,1000.35
2018-06-10T00:35:44.464Z,1000.30
2018-06-10T00:36:44.440Z,1000.27
2018-06-10T00:37:44.376Z,1000.25
2018-06-10T00:38:44.331Z,1000.22
2018-06-10T00:39:44.289Z,1000.22
2018-06-10T00:40:44.245Z,1000.21
2018-06-10T00:41:44.224Z,1000.20
2018-06-10T00:42:44.158Z,1000.26
2018-06-10T00:43:44.111Z,1000.25
2018-06-10T00:44:44.068Z,1000.31
2018-06-10T00:45:44.026Z,1000.28
2018-06-10T00:46:44.008Z,1000.26
2018-06-10T00:47:43.936Z,1000.24
2018-06-10T00:48:43.896Z,1000.25
2018-06-10T00:49:43.848Z,1000.23
2018-06-10T00:50:43.807Z,1000.21
2018-06-10T00:51:43.796Z,1000.20
2018-06-10T00:52:43.720Z,1000.20
2018-06-10T00:53:43.674Z,1000.16
2018-06-10T00:54:43.632Z,1000.21
2018-06-10T00:55:43.586Z,1000.22
2018-06-10T00:56:43.571Z,1000.22
2018-06-10T00:57:43.500Z,1000.19
2018-06-10T00:58:43.455Z,1000.14
2018-06-10T00:59:43.410Z,1000.11
2018-06-10T01:00:43.366Z,1000.08
2018-06-10T01:01:43.348Z,1000.08
2018-06-10T01:02:43.279Z,1000.09
2018-06-10T01:03:43.233Z,1000.12
2018-06-10T01:04:43.191Z,1000.16
2018-06-10T01:05:43.164Z,1000.14
2018-06-10T01:06:43.136Z,1000.16
2018-06-10T01:07:43.056Z,1000.13
2018-06-10T01:08:43.013Z,1000.15
2018-06-10T01:09:42.967Z,1000.21
2018-06-10T01:10:42.926Z,1000.20
2018-06-10T01:11:42.909Z,1000.21
2018-06-10T01:14:14.374Z,1000.25
2018-06-10T01:15:14.321Z,1000.23
2018-06-10T01:16:14.275Z,1000.29
2018-06-10T01:17:14.258Z,1000.28
2018-06-10T01:18:14.186Z,1000.32
2018-06-10T01:19:14.148Z,1000.22
2018-06-10T01:20:14.097Z,1000.27
2018-06-10T01:21:14.056Z,1000.29
2018-06-10T01:22:14.033Z,1000.28
2018-06-10T01:23:13.968Z,1000.32
2018-06-10T01:24:13.922Z,1000.32
2018-06-10T01:25:13.880Z,1000.34
2018-06-10T01:26:13.834Z,1000.32
2018-06-10T01:27:13.817Z,1000.36
2018-06-10T01:28:13.744Z,1000.34
2018-06-10T01:29:13.703Z,1000.30
2018-06-10T01:30:13.656Z,1000.33
2018-06-10T01:31:13.614Z,1000.36
2018-06-10T01:32:13.591Z,1000.31
2018-06-10T01:33:13.525Z,1000.31
2018-06-10T01:34:13.480Z,1000.31
2018-06-10T01:35:13.434Z,1000.31
2018-06-10T01:36:13.392Z,1000.25
2018-06-10T01:37:13.371Z,1000.28
2018-06-10T01:38:13.304Z,1000.22
2018-06-10T01:39:13.258Z,1000.26
2018-06-10T01:40:13.217Z,1000.22
2018-06-10T01:41:13.173Z,1000.12
2018-06-10T01:42:13.150Z,1000.15
2018-06-10T01:43:13.084Z,1000.15
2018-06-10T01:44:13.041Z,1000.10
2018-06-10T01:45:12.996Z,1000.06
2018-06-10T01:46:12.950Z,1000.05
2018-06-10T01:47:12.929Z,1000.02
2018-06-10T01:48:12.863Z,1000.00
2018-06-10T01:49:12.819Z,999.97
2018-06-10T01:50:12.774Z,999.99
2018-06-10T01:51:12.728Z,999.93
2018-06-10T01:52:12.708Z,999.96
2018-06-10T01:53:12.642Z,1000.02
2018-06-10T01:54:12.598Z,999.99
2018-06-10T01:55:12.561Z,1000.01
2018-06-10T01:56:12.513Z,1000.06
2018-06-10T01:57:12.487Z,1000.08
2018-06-10T01:58:12.421Z,1000.09
2018-06-10T01:59:12.376Z,1000.08
2018-06-10T02:00:12.330Z,1000.06
2018-06-10T02:01:12.287Z,1000.07
2018-06-10T02:02:12.266Z,1000.10
2018-06-10T02:03:12.199Z,1000.07
2018-06-10T02:04:12.160Z,1000.14
2018-06-10T02:05:12.109Z,1000.15
2018-06-10T02:06:12.065Z,1000.16
2018-06-10T02:07:12.048Z,1000.18
2018-06-10T02:08:11.977Z,1000.22
2018-06-10T02:09:11.934Z,1000.24
2018-06-10T02:10:11.887Z,1000.24
2018-06-10T02:11:11.845Z,1000.26
2018-06-10T02:12:11.831Z,1000.32
2018-06-10T02:13:11.758Z,1000.28
2018-06-10T02:14:11.711Z,1000.29
2018-06-10T02:15:11.670Z,1000.28
2018-06-10T02:16:11.624Z,1000.32
2018-06-10T02:17:11.578Z,1000.33
2018-06-10T02:18:11.557Z,1000.34
2018-06-10T02:19:11.487Z,1000.33
2018-06-10T02:20:11.444Z,1000.34
2018-06-10T02:21:11.403Z,1000.40
2018-06-10T02:22:11.356Z,1000.39
2018-06-10T02:23:11.331Z,1000.45
2018-06-10T02:24:11.269Z,1000.51
2018-06-10T02:25:11.226Z,1000.54
2018-06-10T02:26:11.181Z,1000.61
2018-06-10T02:27:11.136Z,1000.65
2018-06-10T02:28:11.117Z,1000.69
2018-06-10T02:29:11.044Z,1000.77
2018-06-10T02:30:11.002Z,1000.81
2018-06-10T02:31:10.962Z,1000.86
2018-06-10T02:32:10.914Z,1000.90
2018-06-10T02:33:10.934Z,1000.92
2018-06-10T02:34:10.824Z,1000.94
2018-06-10T02:35:10.778Z,1000.95
2018-06-10T02:36:10.738Z,1000.95
2018-06-10T02:37:10.694Z,1001.03
2018-06-10T02:38:10.673Z,1000.99
2018-06-10T02:39:10.608Z,1000.95
2018-06-10T02:40:10.559Z,1000.94
2018-06-10T02:41:10.515Z,1000.99
2018-06-10T02:42:10.470Z,1000.99
2018-06-10T02:43:10.447Z,1001.01
2018-06-10T02:44:10.383Z,1001.00
2018-06-10T02:45:10.336Z,1001.00
2018-06-10T02:46:10.291Z,1001.05
2018-06-10T02:47:10.248Z,1001.02
2018-06-10T02:48:10.228Z,1001.05
2018-06-10T02:49:10.162Z,1001.04
2018-06-10T02:50:10.111Z,1001.01
2018-06-10T02:51:10.069Z,1001.04
2018-06-10T02:52:10.023Z,1001.06
2018-06-10T02:53:10.003Z,1001.09
2018-06-10T02:54:09.935Z,1001.09
2018-06-10T02:55:09.891Z,1001.12
2018-06-10T02:56:09.846Z,1001.14
2018-06-10T02:57:09.798Z,1001.14
2018-06-10T02:58:09.785Z,1001.13
2018-06-10T02:59:09.711Z,1001.14
2018-06-10T03:00:09.670Z,1001.17
2018-06-10T03:01:09.621Z,1001.15
2018-06-10T03:02:09.577Z,1001.15
2018-06-10T03:03:09.555Z,1001.15
2018-06-10T03:04:09.491Z,1001.11
2018-06-10T03:05:09.443Z,1001.01
2018-06-10T03:06:09.402Z,1000.96
2018-06-10T03:07:09.354Z,1000.95
2018-06-10T03:08:09.335Z,1000.91
2018-06-10T03:09:09.259Z,1000.91
2018-06-10T03:10:09.216Z,1000.86
2018-06-10T03:11:09.178Z,1000.84
2018-06-10T03:12:09.126Z,1000.86
2018-06-10T03:13:09.106Z,1000.81
2018-06-10T03:14:09.037Z,1000.77
2018-06-10T03:15:08.992Z,1000.74
2018-06-10T03:16:08.946Z,1000.68
2018-06-10T03:17:08.900Z,1000.61
2018-06-10T03:18:08.875Z,1000.63
2018-06-10T03:19:08.808Z,1000.63
2018-06-10T03:20:08.762Z,1000.61
2018-06-10T03:21:08.723Z,1000.58
2018-06-10T03:22:08.673Z,1000.54
2018-06-10T03:23:08.652Z,1000.56
2018-06-10T03:24:08.584Z,1000.55
2018-06-10T03:25:08.538Z,1000.55
2018-06-10T03:26:08.488Z,1000.53
2018-06-10T03:27:08.442Z,1000.49
2018-06-10T03:28:08.424Z,1000.46
2018-06-10T03:29:08.354Z,1000.43
2018-06-10T03:30:08.304Z,1000.43
2018-06-10T03:31:08.260Z,1000.43
2018-06-10T03:32:08.216Z,1000.41
2018-06-10T03:33:08.191Z,1000.37
2018-06-10T03:34:08.125Z,1000.37
2018-06-10T03:35:08.077Z,1000.36
2018-06-10T03:36:08.033Z,1000.37
2018-06-10T03:37:07.987Z,1000.38
2018-06-10T03:38:07.977Z,1000.36
2018-06-10T03:39:07.898Z,1000.34
2018-06-10T03:40:07.850Z,1000.34
2018-06-10T03:41:07.812Z,1000.35
2018-06-10T03:42:07.759Z,1000.32
2018-06-10T03:43:07.711Z,1000.32
2018-06-10T03:44:07.686Z,1000.38
2018-06-10T03:45:07.622Z,1000.32
2018-06-10T03:46:07.576Z,1000.31
2018-06-10T03:47:07.525Z,1000.25
2018-06-10T03:48:07.483Z,1000.28
2018-06-10T03:49:07.461Z,1000.27
2018-06-10T03:50:07.388Z,1000.35
2018-06-10T03:51:07.349Z,1000.35
2018-06-10T03:52:07.319Z,1000.36
2018-06-10T03:53:07.248Z,1000.37
2018-06-10T03:54:07.232Z,1000.41
2018-06-10T03:55:07.163Z,1000.38
2018-06-10T03:56:07.112Z,1000.38
2018-06-10T03:57:07.069Z,1000.37
2018-06-10T03:58:07.024Z,1000.35
2018-06-10T03:59:06.998Z,1000.33
2018-06-10T04:00:06.929Z,1000.35
2018-06-10T04:01:06.884Z,1000.35
2018-06-10T04:02:06.850Z,1000.32
2018-06-10T04:03:06.794Z,1000.35
2018-06-10T04:04:06.768Z,1000.35
2018-06-10T04:05:06.698Z,1000.33
2018-06-10T04:06:06.653Z,1000.35
2018-06-10T04:07:06.611Z,1000.37
2018-06-10T04:08:06.566Z,1000.41
2018-06-10T04:09:06.541Z,1000.40
2018-06-10T04:10:06.469Z,1000.38
2018-06-10T04:11:06.427Z,1000.38
2018-06-10T04:12:06.380Z,1000.37
2018-06-10T04:13:06.329Z,1000.36
2018-06-10T04:14:06.310Z,1000.35
2018-06-10T04:15:06.240Z,1000.33
2018-06-10T04:16:06.195Z,1000.35
2018-06-10T04:17:06.147Z,1000.37
2018-06-10T04:18:06.105Z,1000.35
2018-06-10T04:19:06.082Z,1000.36
2018-06-10T04:20:06.009Z,1000.36
2018-06-10T04:21:05.963Z,1000.36
2018-06-10T04:22:05.918Z,1000.29
2018-06-10T04:23:05.872Z,1000.28
2018-06-10T04:24:05.849Z,1000.25
2018-06-10T04:25:05.780Z,1000.24
2018-06-10T04:26:05.734Z,1000.20
2018-06-10T04:27:05.690Z,1000.19
2018-06-10T04:28:05.641Z,1000.17
2018-06-10T04:29:05.618Z,1000.18
2018-06-10T04:30:05.549Z,1000.16
2018-06-10T04:31:05.505Z,1000.19
2018-06-10T04:32:05.456Z,1000.19
2018-06-10T04:33:05.413Z,1000.21
2018-06-10T04:34:05.384Z,1000.17
2018-06-10T04:35:05.319Z,1000.17
2018-06-10T04:36:05.272Z,1000.18
2018-06-10T04:37:05.225Z,1000.15
2018-06-10T04:38:05.183Z,1000.18
2018-06-10T04:39:05.159Z,1000.18
2018-06-10T04:40:05.089Z,1000.27
2018-06-10T04:41:05.045Z,1000.29
2018-06-10T04:42:04.996Z,1000.33
2018-06-10T04:43:04.950Z,1000.34
2018-06-10T04:44:04.932Z,1000.36
2018-06-10T04:45:04.860Z,1000.36
2018-06-10T04:46:04.809Z,1000.46
2018-06-10T04:47:04.790Z,1000.47
2018-06-10T04:48:04.722Z,1000.48
2018-06-10T04:49:04.697Z,1000.49
2018-06-10T04:50:04.628Z,1000.49
2018-06-10T04:51:04.584Z,1000.51
2018-06-10T04:52:04.536Z,1000.54
2018-06-10T04:53:04.550Z,1000.54
2018-06-10T04:54:04.470Z,1000.55
2018-06-10T04:55:04.402Z,1000.59
2018-06-10T04:56:04.352Z,1000.58
2018-06-10T04:57:04.308Z,1000.58
2018-06-10T04:58:04.260Z,1000.60
2018-06-10T04:59:04.239Z,1000.63
2018-06-10T05:00:04.169Z,1000.56
2018-06-10T05:01:04.117Z,1000.58
2018-06-10T05:02:04.081Z,1000.59
2018-06-10T05:03:04.031Z,1000.57
2018-06-10T05:04:04.007Z,1000.59
2018-06-10T05:05:03.935Z,1000.62
2018-06-10T05:06:03.893Z,1000.63
2018-06-10T05:07:03.844Z,1000.65
2018-06-10T05:08:03.805Z,1000.70
2018-06-10T05:09:03.775Z,1000.69
2018-06-10T05:10:03.707Z,1000.69
2018-06-10T05:11:03.664Z,1000.71
2018-06-10T05:12:03.618Z,1000.71
2018-06-10T05:13:03.580Z,1000.74
2018-06-10T05:14:03.555Z,1000.72
2018-06-10T05:15:03.477Z,1000.71
2018-06-10T05:16:03.434Z,1000.72
2018-06-10T05:17:03.386Z,1000.72
2018-06-10T05:18:03.339Z,1000.74
2018-06-10T05:19:03.293Z,1000.73
2018-06-10T05:20:03.368Z,1000.77
2018-06-10T05:21:03.207Z,1000.77
2018-06-10T05:22:03.156Z,1000.74
2018-06-10T05:23:03.109Z,1000.76
2018-06-10T05:24:03.065Z,1000.67
2018-06-10T05:25:03.048Z,1000.71
2018-06-10T05:26:02.974Z,1000.70
2018-06-10T05:27:02.927Z,1000.66
2018-06-10T05:28:02.881Z,1000.68
2018-06-10T05:29:02.836Z,1000.65
2018-06-10T05:30:02.814Z,1000.62
2018-06-10T05:31:02.752Z,1000.58
2018-06-10T05:32:02.699Z,1000.55
2018-06-10T05:33:02.653Z,1000.54
2018-06-10T05:34:02.610Z,1000.55
2018-06-10T05:35:02.587Z,1000.53
2018-06-10T05:36:02.515Z,1000.53
2018-06-10T05:37:02.472Z,1000.50
2018-06-10T05:38:02.425Z,1000.45
2018-06-10T05:39:02.377Z,1000.46
2018-06-10T05:40:02.402Z,1000.44
2018-06-10T05:41:02.293Z,1000.45
2018-06-10T05:42:02.241Z,1000.46
2018-06-10T05:43:02.198Z,1000.46
2018-06-10T05:44:02.153Z,1000.46
2018-06-10T05:45:02.130Z,1000.45
2018-06-10T05:46:02.065Z,1000.41
2018-06-10T05:47:02.014Z,1000.40
2018-06-10T05:48:01.970Z,1000.38
2018-06-10T05:49:01.924Z,1000.33
2018-06-10T05:50:01.897Z,1000.33
2018-06-10T05:51:01.859Z,1000.33
2018-06-10T05:52:01.796Z,1000.31
2018-06-10T05:53:01.740Z,1000.37
2018-06-10T05:54:01.689Z,1000.35
2018-06-10T05:55:01.671Z,1000.35
2018-06-10T05:56:01.605Z,1000.37
2018-06-10T05:57:01.559Z,1000.38
2018-06-10T05:58:01.511Z,1000.43
2018-06-10T05:59:01.463Z,1000.49
2018-06-10T06:00:01.443Z,1000.48
2018-06-10T06:01:01.375Z,1000.54
2018-06-10T06:02:01.330Z,1000.55
2018-06-10T06:03:01.283Z,1000.57
2018-06-10T06:04:01.239Z,1000.59
2018-06-10T06:05:01.213Z,1000.58
2018-06-10T06:06:01.150Z,1000.62
2018-06-10T06:07:01.099Z,1000.63
2018-06-10T06:08:01.053Z,1000.59
2018-06-10T06:09:01.007Z,1000.62
2018-06-10T06:10:00.984Z,1000.57
2018-06-10T06:11:00.915Z,1000.59
2018-06-10T06:12:00.870Z,1000.57
2018-06-10T06:13:00.825Z,1000.59
2018-06-10T06:14:00.779Z,1000.56
2018-06-10T06:15:00.761Z,1000.53
2018-06-10T06:16:00.688Z,1000.58
2018-06-10T06:17:00.641Z,1000.55
2018-06-10T06:18:00.598Z,1000.55
2018-06-10T06:19:00.555Z,1000.54
2018-06-10T06:20:00.531Z,1000.54
2018-06-10T06:21:00.465Z,1000.52
2018-06-10T06:22:00.412Z,1000.50
2018-06-10T06:23:00.368Z,1000.50
2018-06-10T06:24:00.320Z,1000.45
2018-06-10T06:25:00.398Z,1000.45
2018-06-10T06:26:00.231Z,1000.47
2018-06-10T06:27:00.187Z,1000.41
2018-06-10T06:28:00.144Z,1000.41
2018-06-10T06:29:00.096Z,1000.42
2018-06-10T06:30:00.082Z,1000.40
2018-06-10T06:31:00.005Z,1000.36
2018-06-10T06:31:59.957Z,1000.42
2018-06-10T06:32:59.913Z,1000.38
2018-06-10T06:33:59.866Z,1000.38
2018-06-10T06:34:59.857Z,1000.42
2018-06-10T06:35:59.773Z,1000.44
2018-06-10T06:36:59.728Z,1000.44
2018-06-10T06:37:59.685Z,1000.43
2018-06-10T06:38:59.640Z,1000.42
2018-06-10T06:39:59.594Z,1000.45
2018-06-10T06:40:59.568Z,1000.40
2018-06-10T06:41:59.501Z,1000.40
2018-06-10T06:42:59.453Z,1000.39
2018-06-10T06:43:59.409Z,1000.39
2018-06-10T06:44:59.367Z,1000.35
2018-06-10T06:45:59.348Z,1000.34
2018-06-10T06:46:59.272Z,1000.34
2018-06-10T06:47:59.227Z,1000.36
2018-06-10T06:48:59.181Z,1000.36
2018-06-10T06:49:59.138Z,1000.34
2018-06-10T06:50:59.114Z,1000.31
2018-06-10T06:51:59.047Z,1000.31
2018-06-10T06:52:58.999Z,1000.30
2018-06-10T06:53:58.958Z,1000.25
2018-06-10T06:54:58.908Z,1000.24
2018-06-10T06:55:58.886Z,1000.22
2018-06-10T06:56:58.817Z,1000.24
2018-06-10T06:57:58.798Z,1000.26
2018-06-10T06:58:58.726Z,1000.24
2018-06-10T06:59:58.679Z,1000.26
2018-06-10T07:00:58.654Z,1000.28
2018-06-10T07:01:58.591Z,1000.25
2018-06-10T07:02:58.541Z,1000.28
2018-06-10T07:03:58.493Z,1000.25
2018-06-10T07:04:58.454Z,1000.24
2018-06-10T07:05:58.427Z,1000.26
2018-06-10T07:06:58.361Z,1000.26
2018-06-10T07:07:58.316Z,1000.28
2018-06-10T07:08:58.270Z,1000.27
2018-06-10T07:09:58.226Z,1000.25
2018-06-10T07:10:58.201Z,1000.30
2018-06-10T07:11:58.181Z,1000.30
2018-06-10T07:12:58.089Z,1000.28
2018-06-10T07:13:58.043Z,1000.22
2018-06-10T07:14:57.994Z,1000.21
2018-06-10T07:15:57.978Z,1000.23
2018-06-10T07:16:57.905Z,1000.24
2018-06-10T07:17:57.861Z,1000.27
2018-06-10T07:18:57.814Z,1000.28
2018-06-10T07:19:57.792Z,1000.30
2018-06-10T07:20:57.748Z,1000.31
2018-06-10T07:21:57.676Z,1000.35
2018-06-10T07:22:57.633Z,1000.35
2018-06-10T07:23:57.588Z,1000.35
2018-06-10T07:24:57.541Z,1000.36
2018-06-10T07:25:57.521Z,1000.38
2018-06-10T07:26:57.451Z,1000.40
2018-06-10T07:27:57.408Z,1000.40
2018-06-10T07:28:57.362Z,1000.44
2018-06-10T07:29:57.336Z,1000.44
2018-06-10T07:30:57.303Z,1000.47
2018-06-10T07:31:57.229Z,1000.52
2018-06-10T07:32:57.192Z,1000.52
2018-06-10T07:33:57.132Z,1000.52
2018-06-10T07:34:57.090Z,1000.56
2018-06-10T07:35:57.068Z,1000.57
2018-06-10T07:36:56.996Z,1000.60
2018-06-10T07:37:56.958Z,1000.64
2018-06-10T07:38:56.911Z,1000.62
2018-06-10T07:39:56.865Z,1000.67
2018-06-10T07:40:56.840Z,1000.64
2018-06-10T07:41:56.778Z,1000.68
2018-06-10T07:42:56.728Z,1000.70
2018-06-10T07:43:56.683Z,1000.68
2018-06-10T07:44:56.637Z,1000.69
2018-06-10T07:45:56.660Z,1000.74
2018-06-10T07:46:56.551Z,1000.68
2018-06-10T07:47:56.507Z,1000.72
2018-06-10T07:48:56.460Z,1000.73
2018-06-10T07:49:56.412Z,1000.74
2018-06-10T07:50:56.395Z,1000.78
2018-06-10T07:52:03.459Z,1000.77
2018-06-10T07:52:56.279Z,1000.78
2018-06-10T07:53:56.239Z,1000.80
2018-06-10T07:54:56.188Z,1000.81
2018-06-10T07:55:56.216Z,1000.83
2018-06-10T07:56:56.098Z,1000.85
2018-06-10T07:57:56.055Z,1000.83
2018-06-10T07:58:56.009Z,1000.83
2018-06-10T07:59:55.967Z,1000.83
2018-06-10T08:00:55.945Z,1000.83
2018-06-10T08:01:55.877Z,1000.81
2018-06-10T08:02:55.832Z,1000.84
2018-06-10T08:03:55.785Z,1000.82
2018-06-10T08:04:55.741Z,1000.85
2018-06-10T08:05:55.735Z,1000.83
2018-06-10T08:06:55.662Z,1000.82
2018-06-10T08:07:55.612Z,1000.78
2018-06-10T08:08:55.560Z,1000.78
2018-06-10T08:09:55.518Z,1000.78
2018-06-10T08:10:55.472Z,1000.78
2018-06-10T08:11:55.459Z,1000.79
2018-06-10T08:12:55.387Z,1000.82
2018-06-10T08:13:55.337Z,1000.81
2018-06-10T08:14:55.294Z,1000.83
2018-06-10T08:15:55.245Z,1000.81
2018-06-10T08:16:55.225Z,1000.79
2018-06-10T08:17:55.160Z,1000.83
2018-06-10T08:18:55.116Z,1000.81
2018-06-10T08:19:55.073Z,1000.84
2018-06-10T08:20:55.030Z,1000.86
2018-06-10T08:21:55.003Z,1000.87
2018-06-10T08:23:03.228Z,1000.85
2018-06-10T08:23:54.890Z,1000.84
2018-06-10T08:24:54.841Z,1000.92
2018-06-10T08:25:54.801Z,1000.91
2018-06-10T08:26:54.779Z,1000.90
2018-06-10T08:27:54.710Z,1000.92
2018-06-10T08:28:54.664Z,1000.92
2018-06-10T08:29:54.623Z,1000.94
2018-06-10T08:30:54.575Z,1000.94
2018-06-10T08:31:54.571Z,1000.97
2018-06-10T08:32:54.485Z,1001.00
2018-06-10T08:33:54.442Z,1000.98
2018-06-10T08:34:54.398Z,1000.99
2018-06-10T08:35:54.355Z,1000.98
2018-06-10T08:36:54.330Z,1000.99
2018-06-10T08:37:54.265Z,1000.96
2018-06-10T08:38:54.220Z,1000.92
2018-06-10T08:39:54.175Z,1000.92
2018-06-10T08:40:54.130Z,1000.89
2018-06-10T08:41:54.106Z,1000.88
2018-06-10T08:42:54.041Z,1000.91
2018-06-10T08:43:54.034Z,1000.81
2018-06-10T08:44:53.951Z,1000.82
2018-06-10T08:45:53.910Z,1000.82
2018-06-10T08:46:53.890Z,1000.81
2018-06-10T08:47:53.818Z,1000.84
2018-06-10T08:48:53.779Z,1000.87
2018-06-10T08:49:53.730Z,1000.89
2018-06-10T08:50:53.690Z,1000.86
2018-06-10T08:51:53.666Z,1000.83
2018-06-10T08:52:53.597Z,1000.86
2018-06-10T08:53:53.554Z,1000.84
2018-06-10T08:54:53.513Z,1000.86
2018-06-10T08:55:53.467Z,1000.88
2018-06-10T08:56:53.508Z,1000.88
2018-06-10T08:57:53.377Z,1000.86
2018-06-10T08:58:53.337Z,1000.89
2018-06-10T08:59:53.292Z,1000.89
2018-06-10T09:00:53.250Z,1000.88
2018-06-10T09:01:53.224Z,1000.89
2018-06-10T09:02:53.163Z,1000.88
2018-06-10T09:03:53.112Z,1000.89
2018-06-10T09:04:53.074Z,1000.93
2018-06-10T09:05:53.025Z,1000.93
2018-06-10T09:06:53.008Z,1000.93
2018-06-10T09:07:52.939Z,1000.95
2018-06-10T09:08:52.928Z,1000.95
2018-06-10T09:09:52.848Z,1000.96
2018-06-10T09:10:52.809Z,1000.99
2018-06-10T09:11:52.787Z,1000.96
2018-06-10T09:12:52.721Z,1001.00
2018-06-10T09:13:52.679Z,1001.00
2018-06-10T09:14:52.679Z,1000.98
2018-06-10T09:15:52.595Z,1000.98
2018-06-10T09:16:52.565Z,1000.97
2018-06-10T09:17:52.506Z,1000.97
2018-06-10T09:18:52.458Z,1000.93
2018-06-10T09:19:52.418Z,1000.89
2018-06-10T09:20:52.369Z,1000.93
2018-06-10T09:21:52.351Z,1000.94
2018-06-10T09:22:52.282Z,1000.94
2018-06-10T09:23:52.241Z,1000.92
2018-06-10T09:24:52.193Z,1000.94
2018-06-10T09:25:52.154Z,1000.95
2018-06-10T09:26:52.128Z,1000.92
2018-06-10T09:27:52.063Z,1000.94
2018-06-10T09:28:52.078Z,1000.94
2018-06-10T09:29:51.977Z,1000.89
2018-06-10T09:30:51.937Z,1000.92
2018-06-10T09:31:51.910Z,1000.89
2018-06-10T09:32:51.846Z,1000.90
2018-06-10T09:33:51.805Z,1000.88
2018-06-10T09:34:51.759Z,1000.90
2018-06-10T09:35:51.717Z,1000.91
2018-06-10T09:36:51.699Z,1000.90
2018-06-10T09:37:51.632Z,1000.86
2018-06-10T09:38:51.586Z,1000.84
2018-06-10T09:39:51.544Z,1000.90
2018-06-10T09:40:51.499Z,1000.88
2018-06-10T09:41:51.457Z,1000.87
2018-06-10T09:42:51.435Z,1000.91
2018-06-10T09:43:51.371Z,1000.93
2018-06-10T09:44:51.326Z,1000.92
2018-06-10T09:45:51.282Z,1000.86
2018-06-10T09:46:51.242Z,1000.81
2018-06-10T09:47:51.221Z,1000.85
2018-06-10T09:48:58.799Z,1000.78
2018-06-10T09:49:51.126Z,1000.77
2018-06-10T09:50:51.075Z,1000.75
2018-06-10T09:51:51.028Z,1000.78
2018-06-10T09:52:51.006Z,1000.75
2018-06-10T09:53:50.945Z,1000.77
2018-06-10T09:54:50.900Z,1000.82
2018-06-10T09:55:50.861Z,1000.82
2018-06-10T09:56:50.818Z,1000.84
2018-06-10T09:57:50.799Z,1000.80
2018-06-10T09:58:50.731Z,1000.81
2018-06-10T09:59:50.686Z,1000.85
2018-06-10T10:00:50.642Z,1000.85
2018-06-10T10:01:50.603Z,1000.81
2018-06-10T10:02:50.621Z,1000.85
2018-06-10T10:03:50.517Z,1000.84
2018-06-10T10:04:50.476Z,1000.82
2018-06-10T10:05:50.429Z,1000.86
2018-06-10T10:06:50.387Z,1000.83
2018-06-10T10:07:50.366Z,1000.83
2018-06-10T10:08:50.318Z,1000.83
2018-06-10T10:09:50.259Z,1000.83
2018-06-10T10:10:50.219Z,1000.80
2018-06-10T10:11:50.175Z,1000.80
2018-06-10T10:12:50.163Z,1000.75
2018-06-10T10:13:50.089Z,1000.76
2018-06-10T10:14:50.112Z,1000.75
2018-06-10T10:15:50.007Z,1000.74
2018-06-10T10:16:49.960Z,1000.74
2018-06-10T10:17:49.945Z,1000.74
2018-06-10T10:18:49.880Z,1000.72
2018-06-10T10:19:49.838Z,1000.79
2018-06-10T10:20:49.793Z,1000.78
2018-06-10T10:21:49.750Z,1000.81
2018-06-10T10:22:49.740Z,1000.78
2018-06-10T10:23:49.668Z,1000.76
2018-06-10T10:24:49.620Z,1000.75
2018-06-10T10:25:49.580Z,1000.79
2018-06-10T10:26:49.537Z,1000.79
2018-06-10T10:27:49.532Z,1000.78
2018-06-10T10:28:49.450Z,1000.82
2018-06-10T10:29:49.411Z,1000.83
2018-06-10T10:30:49.367Z,1000.83
2018-06-10T10:31:49.403Z,1000.84
2018-06-10T10:32:49.307Z,1000.84
2018-06-10T10:33:49.237Z,1000.83
2018-06-10T10:34:49.196Z,1000.89
2018-06-10T10:35:49.153Z,1000.90
2018-06-10T10:36:49.114Z,1000.93
2018-06-10T10:37:49.091Z,1000.91
2018-06-10T10:38:49.027Z,1000.93
2018-06-10T10:39:48.982Z,1000.95
2018-06-10T10:40:48.938Z,1001.01
2018-06-10T10:41:48.900Z,1000.99
2018-06-10T10:42:48.882Z,1001.01
2018-06-10T10:43:48.816Z,1000.96
2018-06-10T10:44:48.772Z,1000.86
2018-06-10T10:45:48.735Z,1000.80
2018-06-10T10:46:48.689Z,1000.79
2018-06-10T10:47:48.669Z,1000.81
2018-06-10T10:48:48.603Z,1000.84
2018-06-10T10:49:48.561Z,1000.81
2018-06-10T10:50:48.524Z,1000.81
2018-06-10T10:51:48.477Z,1000.80
2018-06-10T10:52:48.454Z,1000.82
2018-06-10T10:53:48.393Z,1000.86
2018-06-10T10:54:48.344Z,1000.90
2018-06-10T10:55:48.308Z,1000.97
2018-06-10T10:56:48.263Z,1000.94
2018-06-10T10:57:48.247Z,1000.84
2018-06-10T10:58:48.178Z,1000.86
2018-06-10T10:59:48.138Z,1000.88
2018-06-10T11:00:48.095Z,1000.91
2018-06-10T11:01:48.072Z,1000.98
2018-06-10T11:02:48.030Z,1000.93
2018-06-10T11:03:47.988Z,1000.92
2018-06-10T11:04:47.930Z,1000.88
2018-06-10T11:05:47.882Z,1000.84
2018-06-10T11:06:47.838Z,1000.85
2018-06-10T11:07:47.796Z,1000.85
2018-06-10T11:08:47.778Z,1000.81
2018-06-10T11:09:47.716Z,1000.79
2018-06-10T11:10:47.671Z,1000.76
2018-06-10T11:11:47.628Z,1000.79
2018-06-10T11:12:47.584Z,1000.79
2018-06-10T11:13:47.574Z,1000.78
2018-06-10T11:14:47.662Z,1000.81
2018-06-10T11:15:47.462Z,1000.85
2018-06-10T11:16:47.414Z,1000.79
2018-06-10T11:17:47.374Z,1000.75
2018-06-10T11:18:47.352Z,1000.79
2018-06-10T11:19:47.289Z,1000.81
2018-06-10T11:20:47.251Z,1000.77
2018-06-10T11:21:47.206Z,1000.76
2018-06-10T11:22:47.173Z,1000.77
2018-06-10T11:23:47.143Z,1000.73
2018-06-10T11:24:47.072Z,1000.75
2018-06-10T11:25:47.040Z,1000.73
2018-06-10T11:26:46.989Z,1000.70
2018-06-10T11:27:46.943Z,1000.78
2018-06-10T11:28:46.928Z,1000.79
2018-06-10T11:29:46.859Z,1000.78
2018-06-10T11:30:46.823Z,1000.82
2018-06-10T11:31:46.778Z,1000.76
2018-06-10T11:32:46.731Z,1000.77
2018-06-10T11:33:46.723Z,1000.76
2018-06-10T11:34:46.641Z,1000.72
2018-06-10T11:35:46.603Z,1000.73
2018-06-10T11:36:46.554Z,1000.73
2018-06-10T11:37:46.515Z,1000.70
2018-06-10T11:38:46.497Z,1000.72
2018-06-10T11:39:46.426Z,1000.76
2018-06-10T11:40:46.384Z,1000.76
2018-06-10T11:41:46.346Z,1000.76
2018-06-10T11:42:46.303Z,1000.76
2018-06-10T11:43:46.277Z,1000.77
2018-06-10T11:44:46.211Z,1000.82
2018-06-10T11:45:46.169Z,1000.82
2018-06-10T11:46:46.124Z,1000.79
2018-06-10T11:47:46.083Z,1000.76
2018-06-10T11:48:46.070Z,1000.78
2018-06-10T11:49:45.998Z,1000.73
2018-06-10T11:50:45.954Z,1000.76
2018-06-10T11:51:45.914Z,1000.80
2018-06-10T11:52:45.865Z,1000.84
2018-06-10T11:53:45.847Z,1000.82
2018-06-10T11:54:45.780Z,1000.75
2018-06-10T11:55:45.737Z,1000.72
2018-06-10T11:56:45.694Z,1000.74
2018-06-10T11:57:45.647Z,1000.76
2018-06-10T11:58:45.629Z,1000.79
2018-06-10T11:59:45.558Z,1000.83
2018-06-10T12:00:45.518Z,1000.83
2018-06-10T12:01:45.475Z,1000.77
2018-06-10T12:02:45.437Z,1000.80
2018-06-10T12:03:45.420Z,1000.69
2018-06-10T12:04:45.343Z,1000.71
2018-06-10T12:05:45.307Z,1000.78
2018-06-10T12:06:45.269Z,1000.80